createdAt,value
2018-11-27T00:01:49.538Z,0.70
2018-11-27T00:04:18.083Z,0.67
2018-11-27T00:06:46.758Z,0.70
2018-11-27T00:09:17.427Z,0.80
2018-11-27T00:11:46.058Z,0.70
2018-11-27T00:14:25.139Z,0.70
2018-11-27T00:16:54.400Z,0.63
2018-11-27T00:19:22.978Z,0.60
2018-11-27T00:21:51.516Z,1.70
2018-11-27T00:24:21.338Z,0.60
2018-11-27T00:26:49.930Z,0.70
2018-11-27T00:29:18.502Z,0.70
2018-11-27T00:31:47.052Z,1.40
2018-11-27T00:34:15.582Z,0.80
2018-11-27T00:36:44.070Z,4.80
2018-11-27T00:39:12.766Z,1.47
2018-11-27T00:41:42.506Z,0.70
2018-11-27T00:44:11.070Z,0.60
2018-11-27T00:46:39.668Z,7.70
2018-11-27T00:49:08.264Z,0.60
2018-11-27T00:51:36.851Z,1.03
2018-11-27T00:54:05.366Z,0.60
2018-11-27T00:56:34.446Z,0.70
2018-11-27T00:59:03.130Z,0.60
2018-11-27T01:01:32.258Z,0.60
2018-11-27T01:04:00.930Z,0.70
2018-11-27T01:06:29.926Z,19.20
2018-11-27T01:08:58.566Z,1.73
2018-11-27T01:11:27.200Z,0.93
2018-11-27T01:13:56.247Z,0.80
2018-11-27T01:16:24.851Z,0.60
2018-11-27T01:18:54.376Z,1.80
2018-11-27T01:21:22.906Z,3.33
2018-11-27T01:23:52.178Z,0.93
2018-11-27T01:26:20.707Z,0.60
2018-11-27T01:28:49.322Z,0.80
2018-11-27T01:31:18.200Z,1.00
2018-11-27T01:33:46.790Z,1.37
2018-11-27T01:36:15.523Z,0.60
2018-11-27T01:38:44.025Z,2.03
2018-11-27T01:41:12.612Z,0.70
2018-11-27T01:43:41.151Z,3.37
2018-11-27T01:46:09.839Z,1.27
2018-11-27T01:48:38.358Z,0.60
2018-11-27T01:51:07.210Z,5.17
2018-11-27T01:53:36.369Z,0.93
2018-11-27T01:56:05.721Z,2.57
2018-11-27T01:58:34.242Z,1.10
2018-11-27T02:01:02.738Z,2.83
2018-11-27T02:03:31.256Z,2.80
2018-11-27T02:05:59.710Z,0.70
2018-11-27T02:08:28.950Z,2.57
2018-11-27T02:10:58.228Z,2.40
2018-11-27T02:13:26.914Z,0.70
2018-11-27T02:15:55.742Z,2.70
2018-11-27T02:18:24.470Z,3.33
2018-11-27T02:20:53.098Z,0.77
2018-11-27T02:23:22.935Z,31.17
2018-11-27T02:25:52.002Z,24.77
2018-11-27T02:28:20.546Z,27.73
2018-11-27T02:30:49.053Z,29.03
2018-11-27T02:33:17.710Z,26.40
2018-11-27T02:35:46.411Z,31.57
2018-11-27T02:38:14.943Z,35.20
2018-11-27T02:40:43.462Z,33.23
2018-11-27T02:43:12.080Z,29.17
2018-11-27T02:45:40.739Z,21.47
2018-11-27T02:48:09.221Z,29.93
2018-11-27T02:50:37.739Z,30.40
2018-11-27T02:53:10.614Z,32.77
2018-11-27T02:55:39.166Z,24.43
2018-11-27T02:58:07.671Z,30.63
2018-11-27T03:00:36.426Z,25.53
2018-11-27T03:03:05.552Z,22.47
2018-11-27T03:05:35.530Z,30.00
2018-11-27T03:08:04.181Z,1.90
2018-11-27T03:10:32.951Z,0.70
2018-11-27T03:13:01.379Z,0.83
2018-11-27T03:15:30.678Z,1.00
2018-11-27T03:17:59.303Z,0.90
2018-11-27T03:20:28.430Z,0.60
2018-11-27T03:22:57.033Z,0.90
2018-11-27T03:25:25.628Z,0.63
2018-11-27T03:27:54.658Z,1.00
2018-11-27T03:30:24.547Z,6.47
2018-11-27T03:32:53.068Z,0.70
2018-11-27T03:35:26.107Z,0.97
2018-11-27T03:37:54.777Z,0.60
2018-11-27T03:40:24.562Z,0.80
2018-11-27T03:42:53.290Z,0.60
2018-11-27T03:45:22.800Z,0.70
2018-11-27T03:47:52.029Z,6.27
2018-11-27T03:50:27.727Z,1.40
2018-11-27T03:53:01.360Z,0.80
2018-11-27T03:55:29.854Z,0.60
2018-11-27T03:57:58.348Z,0.60
2018-11-27T04:00:28.282Z,0.60
2018-11-27T04:03:10.674Z,0.60
2018-11-27T04:05:39.502Z,0.60
2018-11-27T04:08:10.019Z,0.73
2018-11-27T04:10:39.875Z,0.60
2018-11-27T04:13:08.460Z,0.60
2018-11-27T04:15:37.134Z,1.57
2018-11-27T04:18:05.655Z,1.47
2018-11-27T04:20:34.172Z,0.60
2018-11-27T04:23:02.635Z,1.00
2018-11-27T04:25:31.130Z,0.70
2018-11-27T04:27:59.755Z,0.60
2018-11-27T04:30:28.274Z,0.60
2018-11-27T04:32:56.791Z,0.60
2018-11-27T04:35:25.388Z,2.30
2018-11-27T04:37:53.873Z,0.70
2018-11-27T04:40:26.685Z,0.63
2018-11-27T04:42:55.345Z,0.60
2018-11-27T04:45:25.156Z,1.47
2018-11-27T04:47:54.506Z,0.90
2018-11-27T04:50:23.203Z,0.60
2018-11-27T04:52:51.856Z,0.60
2018-11-27T04:55:21.467Z,0.60
2018-11-27T04:57:52.509Z,0.60
2018-11-27T05:00:23.100Z,0.70
2018-11-27T05:02:52.022Z,0.60
2018-11-27T05:05:20.655Z,0.80
2018-11-27T05:07:49.194Z,0.60
2018-11-27T05:10:19.794Z,4.60
2018-11-27T05:12:48.435Z,0.60
2018-11-27T05:15:20.786Z,1.43
2018-11-27T05:17:51.624Z,6.30
2018-11-27T05:20:20.415Z,1.20
2018-11-27T05:22:49.506Z,0.80
2018-11-27T05:25:19.788Z,0.70
2018-11-27T05:27:51.746Z,0.80
2018-11-27T05:30:21.865Z,0.80
2018-11-27T05:32:51.152Z,1.30
2018-11-27T05:35:22.775Z,0.93
2018-11-27T05:37:51.892Z,0.90
2018-11-27T05:40:29.232Z,0.90
2018-11-27T05:43:04.934Z,0.90
2018-11-27T05:45:41.014Z,3.23
2018-11-27T05:48:23.171Z,1.00
2018-11-27T05:50:56.700Z,2.00
2018-11-27T05:53:44.266Z,1.87
2018-11-27T05:56:19.784Z,1.50
2018-11-27T05:58:50.300Z,0.80
2018-11-27T06:01:21.955Z,5.77
2018-11-27T06:03:52.298Z,3.27
2018-11-27T06:06:21.713Z,0.70
2018-11-27T06:08:51.146Z,2.17
2018-11-27T06:11:19.978Z,2.10
2018-11-27T06:13:48.936Z,0.60
2018-11-27T06:16:18.240Z,14.90
2018-11-27T06:18:47.850Z,11.83
2018-11-27T06:21:16.690Z,14.07
2018-11-27T06:23:50.026Z,14.37
2018-11-27T06:26:18.765Z,18.63
2018-11-27T06:28:47.589Z,26.90
2018-11-27T06:31:18.370Z,20.67
2018-11-27T06:33:48.178Z,22.10
2018-11-27T06:36:17.044Z,23.27
2018-11-27T06:38:51.613Z,23.33
2018-11-27T06:41:21.454Z,18.17
2018-11-27T06:43:50.051Z,18.40
2018-11-27T06:46:20.386Z,15.73
2018-11-27T06:48:55.521Z,14.63
2018-11-27T06:51:26.229Z,24.03
2018-11-27T06:54:04.763Z,32.90
2018-11-27T06:56:34.115Z,17.43
2018-11-27T06:59:04.541Z,17.13
2018-11-27T07:01:35.797Z,18.23
2018-11-27T07:04:04.834Z,21.57
2018-11-27T07:06:41.081Z,13.80
2018-11-27T07:09:10.873Z,19.27
2018-11-27T07:11:41.373Z,27.97
2018-11-27T07:14:12.144Z,15.23
2018-11-27T07:16:41.269Z,18.53
2018-11-27T07:19:13.561Z,22.93
2018-11-27T07:21:42.705Z,24.00
2018-11-27T07:24:11.935Z,19.83
2018-11-27T07:26:41.327Z,27.20
2018-11-27T07:29:17.128Z,19.63
2018-11-27T07:31:49.483Z,25.90
2018-11-27T07:34:26.134Z,34.70
2018-11-27T07:36:55.511Z,21.03
2018-11-27T07:39:25.117Z,29.10
2018-11-27T07:41:54.397Z,25.80
2018-11-27T07:44:23.115Z,0.60
2018-11-27T07:46:57.317Z,0.60
2018-11-27T07:49:26.791Z,2.80
2018-11-27T07:51:56.103Z,0.80
2018-11-27T07:54:27.370Z,0.80
2018-11-27T07:56:57.309Z,1.93
2018-11-27T07:59:32.843Z,6.37
2018-11-27T08:02:05.933Z,1.20
2018-11-27T08:04:34.995Z,2.60
2018-11-27T08:07:07.132Z,2.20
2018-11-27T08:09:38.799Z,7.67
2018-11-27T08:12:08.436Z,1.10
2018-11-27T08:14:46.361Z,1.93
2018-11-27T08:17:19.675Z,5.87
2018-11-27T08:19:49.253Z,9.20
2018-11-27T08:22:25.113Z,1.23
2018-11-27T08:24:57.857Z,1.27
2018-11-27T08:27:27.701Z,2.40
2018-11-27T08:30:00.493Z,1.90
2018-11-27T08:32:31.812Z,2.30
2018-11-27T08:35:12.123Z,1.23
2018-11-27T08:37:43.760Z,1.93
2018-11-27T08:40:15.004Z,1.70
2018-11-27T08:42:46.404Z,0.70
2018-11-27T08:45:21.699Z,5.27
2018-11-27T08:47:59.721Z,0.90
2018-11-27T08:50:30.498Z,2.40
2018-11-27T08:53:06.906Z,1.00
2018-11-27T08:55:39.650Z,1.73
2018-11-27T08:58:28.576Z,8.93
2018-11-27T09:00:58.826Z,0.90
2018-11-27T09:03:29.418Z,1.00
2018-11-27T09:06:05.314Z,16.33
2018-11-27T09:08:35.505Z,0.60
2018-11-27T09:11:06.608Z,0.83
2018-11-27T09:13:40.783Z,1.73
2018-11-27T09:16:10.365Z,4.33
2018-11-27T09:18:43.405Z,0.90
2018-11-27T09:21:14.745Z,0.77
2018-11-27T09:26:39.011Z,4.33
2018-11-27T09:29:11.211Z,1.60
2018-11-27T09:31:45.055Z,0.60
2018-11-27T09:34:17.951Z,2.67
2018-11-27T09:36:51.600Z,5.40
2018-11-27T09:39:22.745Z,3.57
2018-11-27T09:41:55.041Z,2.70
2018-11-27T09:44:36.937Z,5.80
2018-11-27T09:47:23.515Z,0.70
2018-11-27T09:49:54.959Z,0.93
2018-11-27T09:52:33.805Z,1.00
2018-11-27T09:55:05.779Z,0.70
2018-11-27T09:57:37.449Z,1.27
2018-11-27T10:00:20.721Z,1.53
2018-11-27T10:02:51.848Z,1.30
2018-11-27T10:05:29.210Z,0.80
2018-11-27T10:08:01.353Z,5.37
2018-11-27T10:10:32.902Z,1.17
2018-11-27T10:13:10.974Z,0.67
2018-11-27T10:15:45.918Z,2.70
2018-11-27T10:18:17.441Z,0.70
2018-11-27T10:20:54.478Z,7.57
2018-11-27T10:23:24.917Z,1.10
2018-11-27T10:26:04.726Z,3.00
2018-11-27T10:28:39.509Z,0.60
2018-11-27T10:31:09.725Z,0.60
2018-11-27T10:33:39.174Z,0.60
2018-11-27T10:36:08.578Z,0.70
2018-11-27T10:38:38.281Z,1.23
2018-11-27T10:41:08.626Z,0.70
2018-11-27T10:43:39.266Z,0.60
2018-11-27T10:46:09.396Z,3.00
2018-11-27T10:48:39.507Z,1.30
2018-11-27T10:51:12.219Z,1.60
2018-11-27T10:53:41.760Z,0.70
2018-11-27T10:56:20.086Z,1.10
2018-11-27T10:58:50.595Z,0.80
2018-11-27T11:01:26.108Z,0.70
2018-11-27T11:03:57.594Z,0.70
2018-11-27T11:06:27.776Z,3.20
2018-11-27T11:08:56.588Z,0.70
2018-11-27T11:11:25.158Z,1.30
2018-11-27T11:13:54.813Z,0.70
2018-11-27T11:16:26.430Z,1.67
2018-11-27T11:18:56.832Z,13.53
2018-11-27T11:21:27.410Z,0.60
2018-11-27T11:24:03.443Z,1.33
2018-11-27T11:26:33.075Z,0.77
2018-11-27T11:29:04.616Z,0.70
2018-11-27T11:31:34.374Z,2.30
2018-11-27T11:34:04.989Z,2.60
2018-11-27T11:36:38.893Z,0.60
2018-11-27T11:39:11.247Z,1.80
2018-11-27T11:41:41.937Z,0.70
2018-11-27T11:44:12.127Z,0.70
2018-11-27T11:46:42.741Z,2.93
2018-11-27T11:49:18.755Z,2.47
2018-11-27T11:51:54.907Z,0.80
2018-11-27T11:54:24.677Z,18.60
2018-11-27T11:56:53.894Z,22.60
2018-11-27T11:59:28.823Z,16.20
2018-11-27T12:01:56.078Z,25.03
2018-11-27T12:04:25.587Z,16.53
2018-11-27T12:06:55.395Z,22.23
2018-11-27T12:09:24.620Z,23.43
2018-11-27T12:12:04.516Z,19.27
2018-11-27T12:14:33.867Z,25.07
2018-11-27T12:17:03.757Z,17.40
2018-11-27T12:19:36.338Z,24.70
2018-11-27T12:22:05.069Z,22.30
2018-11-27T12:24:33.682Z,27.43
2018-11-27T12:27:04.639Z,26.83
2018-11-27T12:29:40.614Z,25.37
2018-11-27T12:32:09.709Z,31.00
2018-11-27T12:34:42.507Z,29.50
2018-11-27T12:37:11.649Z,24.83
2018-11-27T12:39:41.716Z,25.30
2018-11-27T12:42:10.549Z,23.07
2018-11-27T12:44:39.514Z,23.93
2018-11-27T12:47:16.010Z,22.70
2018-11-27T12:49:45.043Z,22.47
2018-11-27T12:52:14.073Z,20.10
2018-11-27T12:54:46.227Z,24.30
2018-11-27T12:57:25.791Z,24.20
2018-11-27T12:59:59.601Z,30.23
2018-11-27T13:02:45.049Z,25.03
2018-11-27T13:05:24.611Z,26.00
2018-11-27T13:08:12.820Z,20.60
2018-11-27T13:10:45.565Z,1.83
2018-11-27T13:13:22.827Z,0.90
2018-11-27T13:15:51.936Z,4.53
2018-11-27T13:18:21.051Z,1.37
2018-11-27T13:20:50.073Z,4.77
2018-11-27T13:23:22.793Z,2.20
2018-11-27T13:25:51.561Z,0.60
2018-11-27T13:28:20.256Z,3.60
2018-11-27T13:30:53.143Z,0.80
2018-11-27T13:33:27.232Z,2.50
2018-11-27T13:35:56.486Z,2.73
2018-11-27T13:38:27.316Z,0.60
2018-11-27T13:40:57.766Z,0.70
2018-11-27T13:43:36.441Z,0.70
2018-11-27T13:46:08.104Z,1.50
2018-11-27T13:48:38.695Z,1.33
2018-11-27T13:51:11.421Z,28.37
2018-11-27T13:53:44.551Z,1.77
2018-11-27T13:56:16.516Z,0.70
2018-11-27T13:58:48.924Z,0.70
2018-11-27T14:01:24.533Z,0.60
2018-11-27T14:03:55.310Z,1.07
2018-11-27T14:06:29.201Z,0.60
2018-11-27T14:09:23.964Z,0.60
2018-11-27T14:11:59.154Z,0.80
2018-11-27T14:14:42.580Z,2.33
2018-11-27T14:17:18.102Z,7.63
2018-11-27T14:19:52.024Z,3.53
2018-11-27T14:22:25.207Z,1.83
2018-11-27T14:24:54.945Z,0.70
2018-11-27T14:27:28.910Z,4.80
2018-11-27T14:30:17.124Z,0.70
2018-11-27T14:32:48.011Z,1.60
2018-11-27T14:35:26.097Z,3.77
2018-11-27T14:38:04.562Z,5.28
2018-11-27T14:40:36.924Z,4.93
2018-11-27T14:43:14.492Z,1.27
2018-11-27T14:45:48.650Z,2.60
2018-11-27T14:48:20.578Z,6.05
2018-11-27T14:50:54.542Z,0.73
2018-11-27T14:53:29.186Z,0.70
2018-11-27T14:56:01.222Z,0.90
2018-11-27T14:58:43.662Z,0.80
2018-11-27T15:01:19.221Z,1.40
2018-11-27T15:03:52.466Z,0.60
2018-11-27T15:06:36.688Z,1.00
2018-11-27T15:09:14.206Z,0.60
2018-11-27T15:11:47.772Z,0.68
2018-11-27T15:14:27.688Z,0.80
2018-11-27T15:17:03.404Z,0.70
2018-11-27T15:19:41.962Z,0.80
2018-11-27T15:22:11.008Z,0.70
2018-11-27T15:24:49.977Z,0.60
2018-11-27T15:40:53.873Z,0.60
2018-11-27T15:43:24.106Z,0.60
2018-11-27T15:46:04.111Z,0.57
2018-11-27T15:48:33.446Z,0.70
2018-11-27T15:51:07.022Z,0.60
2018-11-27T15:53:38.143Z,0.60
2018-11-27T15:56:07.465Z,0.70
2018-11-27T15:58:36.523Z,0.68
2018-11-27T16:01:05.331Z,0.60
2018-11-27T16:03:33.859Z,0.60
2018-11-27T16:06:08.019Z,0.70
2018-11-27T16:08:51.956Z,0.70
2018-11-27T16:11:20.671Z,0.70
2018-11-27T16:13:58.499Z,2.58
2018-11-27T16:16:27.129Z,0.60
2018-11-27T16:18:56.219Z,0.60
2018-11-27T16:21:27.031Z,0.60
2018-11-27T16:24:02.655Z,0.60
2018-11-27T16:26:32.644Z,0.60
2018-11-27T16:29:14.203Z,0.68
2018-11-27T16:34:36.065Z,1.23
2018-11-27T16:37:18.083Z,0.80
2018-11-27T16:43:04.117Z,0.80
2018-11-27T16:45:36.457Z,1.20
2018-11-27T16:48:09.343Z,0.90
2018-11-27T16:50:46.837Z,0.80
2018-11-27T16:53:18.098Z,10.43
2018-11-27T16:55:51.613Z,1.15
2018-11-27T16:58:23.005Z,0.90
2018-11-27T17:00:52.028Z,3.27
2018-11-27T17:03:26.948Z,4.97
2018-11-27T17:05:59.802Z,0.97
2018-11-27T17:08:29.175Z,0.75
2018-11-27T17:11:00.002Z,0.80
2018-11-27T17:13:36.253Z,0.60
2018-11-27T17:16:11.665Z,0.80
2018-11-27T17:18:41.803Z,0.70
2018-11-27T17:21:11.506Z,0.60
2018-11-27T17:23:49.441Z,0.65
2018-11-27T17:26:20.747Z,0.70
2018-11-27T17:28:52.210Z,15.10
2018-11-27T17:31:24.874Z,0.60
2018-11-27T17:34:30.449Z,0.80
2018-11-27T17:37:04.075Z,0.82
2018-11-27T17:53:07.317Z,0.90
2018-11-27T17:55:36.767Z,0.70
2018-11-27T17:58:06.351Z,0.88
2018-11-27T18:00:40.012Z,0.60
2018-11-27T18:03:13.219Z,0.70
2018-11-27T18:05:42.343Z,0.90
2018-11-27T18:08:11.690Z,0.70
2018-11-27T18:10:40.815Z,0.65
2018-11-27T18:13:11.093Z,0.70
2018-11-27T18:15:49.011Z,0.77
2018-11-27T18:18:20.189Z,0.80
2018-11-27T18:20:49.014Z,0.80
2018-11-27T18:23:18.431Z,1.47
2018-11-27T18:25:47.685Z,0.70
2018-11-27T18:28:18.563Z,0.70
2018-11-27T18:30:47.755Z,1.57
2018-11-27T18:33:17.817Z,0.70
2018-11-27T18:35:47.407Z,0.70
2018-11-27T18:38:20.015Z,1.10
2018-11-27T18:40:56.911Z,0.80
2018-11-27T18:43:25.905Z,0.70
2018-11-27T18:45:55.150Z,0.77
2018-11-27T18:48:24.387Z,0.60
2018-11-27T18:50:53.675Z,0.70
2018-11-27T18:53:22.684Z,0.70
2018-11-27T18:55:52.501Z,0.70
2018-11-27T18:58:21.381Z,0.90
2018-11-27T19:00:51.504Z,0.70
2018-11-27T19:03:22.924Z,0.70
2018-11-27T19:05:54.625Z,0.80
2018-11-27T19:08:27.669Z,0.60
2018-11-27T19:10:56.923Z,0.70
2018-11-27T19:13:26.197Z,0.60
2018-11-27T19:15:56.967Z,0.77
2018-11-27T19:18:27.377Z,0.70
2018-11-27T19:20:56.022Z,0.80
2018-11-27T19:23:26.611Z,0.70
2018-11-27T19:25:56.522Z,0.63
2018-11-27T19:28:27.226Z,0.80
2018-11-27T19:30:56.669Z,0.70
2018-11-27T19:33:25.646Z,0.70
2018-11-27T19:35:54.529Z,0.77
2018-11-27T19:38:23.496Z,0.70
2018-11-27T19:40:52.764Z,0.63
2018-11-27T19:43:38.196Z,0.90
2018-11-27T19:46:08.512Z,0.82
2018-11-27T19:48:37.824Z,0.60
2018-11-27T19:51:06.820Z,7.40
2018-11-27T19:53:37.394Z,0.70
2018-11-27T19:56:07.099Z,1.00
2018-11-27T19:58:36.158Z,0.60
2018-11-27T20:01:05.692Z,2.80
2018-11-27T20:03:34.466Z,0.80
2018-11-27T20:06:03.314Z,0.80
2018-11-27T20:08:31.877Z,0.80
2018-11-27T20:11:00.641Z,0.70
2018-11-27T20:13:29.692Z,0.70
2018-11-27T20:16:00.296Z,0.70
2018-11-27T20:18:29.258Z,7.33
2018-11-27T20:20:58.060Z,2.80
2018-11-27T20:23:27.048Z,0.60
2018-11-27T20:25:56.660Z,0.80
2018-11-27T20:28:25.805Z,1.75
2018-11-27T20:30:55.796Z,0.70
2018-11-27T20:33:26.025Z,2.30
2018-11-27T20:35:55.092Z,0.83
2018-11-27T20:38:24.257Z,0.70
2018-11-27T20:40:53.895Z,0.70
2018-11-27T20:43:22.991Z,0.70
2018-11-27T20:45:56.048Z,0.70
2018-11-27T20:48:25.415Z,0.70
2018-11-27T20:50:54.467Z,0.80
2018-11-27T20:53:24.483Z,1.00
2018-11-27T20:55:53.670Z,0.90
2018-11-27T20:58:23.462Z,0.70
2018-11-27T21:00:53.502Z,0.70
2018-11-27T21:03:24.208Z,0.70
2018-11-27T21:05:55.706Z,0.70
2018-11-27T21:08:26.973Z,2.05
2018-11-27T21:10:57.954Z,0.70
2018-11-27T21:13:29.007Z,0.70
2018-11-27T21:15:59.542Z,1.20
2018-11-27T21:18:28.470Z,0.70
2018-11-27T21:20:57.669Z,0.60
2018-11-27T21:23:26.647Z,1.12
2018-11-27T21:26:05.606Z,0.67
2018-11-27T21:28:36.298Z,0.70
2018-11-27T21:31:07.260Z,0.70
2018-11-27T21:33:37.574Z,0.80
2018-11-27T21:36:06.627Z,0.93
2018-11-27T21:38:35.978Z,0.62
2018-11-27T21:41:05.172Z,0.70
2018-11-27T21:43:34.055Z,0.70
2018-11-27T21:46:04.110Z,1.00
2018-11-27T21:48:33.001Z,8.80
2018-11-27T21:51:02.171Z,0.80
2018-11-27T21:53:37.421Z,1.90
2018-11-27T21:56:06.947Z,1.27
2018-11-27T21:58:36.052Z,0.70
2018-11-27T22:01:06.243Z,2.20
2018-11-27T22:03:35.335Z,0.78
2018-11-27T22:06:04.722Z,0.80
2018-11-27T22:08:34.400Z,0.60
2018-11-27T22:11:07.349Z,2.08
2018-11-27T22:13:36.592Z,0.98
2018-11-27T22:16:06.043Z,0.68
2018-11-27T22:18:35.047Z,2.77
2018-11-27T22:23:56.517Z,0.78
2018-11-27T22:26:25.961Z,0.62
2018-11-27T22:28:54.763Z,0.70
2018-11-27T22:31:23.909Z,3.00
2018-11-27T22:33:53.009Z,0.70
2018-11-27T22:36:22.034Z,1.03
2018-11-27T22:38:51.368Z,0.72
2018-11-27T22:41:20.398Z,0.77
2018-11-27T22:43:52.815Z,0.70
2018-11-27T22:46:23.063Z,0.70
2018-11-27T22:48:52.002Z,1.60
2018-11-27T22:51:21.255Z,0.80
2018-11-27T22:53:51.065Z,0.98
2018-11-27T22:56:20.451Z,0.70
2018-11-27T22:58:49.367Z,0.70
2018-11-27T23:01:19.211Z,0.70
2018-11-27T23:03:48.359Z,0.70
2018-11-27T23:06:17.521Z,0.80
2018-11-27T23:08:46.777Z,0.80
2018-11-27T23:11:16.143Z,0.70
2018-11-27T23:13:45.363Z,1.55
2018-11-27T23:16:14.331Z,0.90
2018-11-27T23:18:43.687Z,0.80
2018-11-27T23:21:12.830Z,1.03
2018-11-27T23:23:42.838Z,1.00
2018-11-27T23:26:12.054Z,1.17
2018-11-27T23:34:46.082Z,0.90
2018-11-27T23:37:14.973Z,0.88
2018-11-27T23:39:44.867Z,1.12
2018-11-27T23:42:13.991Z,0.80
2018-11-27T23:44:42.991Z,0.90
2018-11-27T23:47:12.601Z,0.82
2018-11-27T23:49:42.067Z,0.73
2018-11-27T23:52:17.185Z,0.90
2018-11-27T23:54:46.331Z,1.00
2018-11-27T23:57:15.315Z,0.70
2018-11-27T23:59:44.513Z,0.90
